createdAt,value
2022-09-20T00:01:29.361Z,101120.19
2022-09-20T00:04:17.290Z,101116.72
2022-09-20T00:07:04.013Z,101126.53
2022-09-20T00:09:51.022Z,101121.16
2022-09-20T00:12:37.815Z,101127.47
2022-09-20T00:15:24.520Z,101130.13
2022-09-20T00:18:12.524Z,101121.47
2022-09-20T00:21:00.576Z,101123.19
2022-09-20T00:23:47.521Z,101119.59
2022-09-20T00:26:34.153Z,101131.25
2022-09-20T00:29:21.015Z,101129.34
2022-09-20T00:32:07.855Z,101122.44
2022-09-20T00:35:17.588Z,101127.94
2022-09-20T00:38:05.525Z,101126.91
2022-09-20T00:40:52.127Z,101134.25
2022-09-20T00:43:41.297Z,101131.50
2022-09-20T00:46:30.836Z,101137.00
2022-09-20T00:49:21.570Z,101141.31
2022-09-20T00:52:08.089Z,101136.97
2022-09-20T00:54:57.471Z,101132.69
2022-09-20T00:57:45.916Z,101131.91
2022-09-20T01:00:32.487Z,101133.69
2022-09-20T01:03:23.029Z,101141.47
2022-09-20T01:06:14.650Z,101139.78
2022-09-20T01:09:03.958Z,101137.19
2022-09-20T01:11:55.523Z,101139.00
2022-09-20T01:14:45.174Z,101142.66
2022-09-20T01:17:35.802Z,101141.69
2022-09-20T01:20:26.841Z,101136.13
2022-09-20T01:23:27.533Z,101131.84
2022-09-20T01:26:31.782Z,101132.75
2022-09-20T01:29:35.098Z,101133.75
2022-09-20T01:32:27.337Z,101132.84
2022-09-20T01:35:16.118Z,101139.97
2022-09-20T01:38:22.807Z,101129.53
2022-09-20T01:41:13.705Z,101135.75
2022-09-20T01:44:07.966Z,101137.50
2022-09-20T01:47:02.043Z,101139.31
2022-09-20T01:49:57.584Z,101138.47
2022-09-20T01:53:26.545Z,101135.91
2022-09-20T01:56:41.637Z,101141.28
2022-09-20T01:59:55.283Z,101142.06
2022-09-20T02:03:15.701Z,101151.63
2022-09-20T02:06:43.381Z,101149.13
2022-09-20T02:10:01.923Z,101150.09
2022-09-20T02:13:03.159Z,101145.72
2022-09-20T02:16:12.151Z,101147.38
2022-09-20T02:19:43.212Z,101153.50
2022-09-20T02:22:42.942Z,101146.28
2022-09-20T02:25:50.929Z,101146.38
2022-09-20T02:28:56.906Z,101149.03
2022-09-20T02:32:19.565Z,101151.63
2022-09-20T02:35:30.564Z,101162.91
2022-09-20T02:38:34.432Z,101163.81
2022-09-20T02:41:48.438Z,101164.78
2022-09-20T02:44:47.595Z,101164.75
2022-09-20T02:47:37.320Z,101162.22
2022-09-20T02:50:32.829Z,101169.38
2022-09-20T02:53:36.703Z,101175.66
2022-09-20T02:56:30.829Z,101175.66
2022-09-20T02:59:27.340Z,101184.50
2022-09-20T03:02:24.002Z,101180.97
2022-09-20T03:05:19.815Z,101179.16
2022-09-20T03:08:21.975Z,101186.34
2022-09-20T03:11:20.048Z,101180.97
2022-09-20T03:14:23.168Z,101186.44
2022-09-20T03:17:21.193Z,101184.78
2022-09-20T03:20:36.145Z,101189.97
2022-09-20T03:23:40.597Z,101190.09
2022-09-20T03:26:41.129Z,101194.50
2022-09-20T03:29:41.953Z,101187.47
2022-09-20T03:32:44.946Z,101190.16
2022-09-20T03:35:44.895Z,101196.28
2022-09-20T03:38:47.218Z,101191.97
2022-09-20T03:41:48.089Z,101192.78
2022-09-20T03:45:13.305Z,101192.00
2022-09-20T03:48:30.708Z,101206.03
2022-09-20T03:51:33.803Z,101206.03
2022-09-20T03:55:04.137Z,101206.03
2022-09-20T03:58:09.213Z,101208.66
2022-09-20T04:01:10.058Z,101201.63
2022-09-20T04:04:04.781Z,101212.97
2022-09-20T04:07:13.902Z,101215.63
2022-09-20T04:10:18.134Z,101213.88
2022-09-20T04:13:26.804Z,101216.47
2022-09-20T04:16:29.514Z,101216.50
2022-09-20T04:19:29.635Z,101220.84
2022-09-20T04:22:22.629Z,101222.59
2022-09-20T04:25:18.517Z,101225.28
2022-09-20T04:28:15.853Z,101230.59
2022-09-20T04:31:12.494Z,101234.97
2022-09-20T04:34:04.023Z,101226.19
2022-09-20T04:37:02.853Z,101224.34
2022-09-20T04:40:01.507Z,101236.69
2022-09-20T04:43:34.210Z,101235.00
2022-09-20T04:46:58.495Z,101234.09
2022-09-20T04:50:15.424Z,101240.19
2022-09-20T04:53:30.424Z,101239.34
2022-09-20T04:56:23.793Z,101234.91
2022-09-20T04:59:21.533Z,101234.91
2022-09-20T05:02:42.096Z,101246.25
2022-09-20T05:05:51.418Z,101240.91
2022-09-20T05:09:13.712Z,101240.91
2022-09-20T05:12:34.567Z,101253.19
2022-09-20T05:15:50.930Z,101247.81
2022-09-20T05:19:07.929Z,101247.66
2022-09-20T05:22:24.882Z,101254.66
2022-09-20T05:25:42.373Z,101258.13
2022-09-20T05:28:35.666Z,101258.06
2022-09-20T05:31:32.326Z,101262.31
2022-09-20T05:34:29.305Z,101266.56
2022-09-20T05:37:26.254Z,101262.06
2022-09-20T05:40:26.631Z,101270.69
2022-09-20T05:43:20.981Z,101262.72
2022-09-20T05:46:18.865Z,101275.50
2022-09-20T05:49:19.302Z,101276.19
2022-09-20T05:52:25.413Z,101274.34
2022-09-20T05:55:32.186Z,101288.22
2022-09-20T05:58:35.571Z,101282.63
2022-09-20T06:01:27.374Z,101290.44
2022-09-20T06:04:20.879Z,101289.41
2022-09-20T06:07:19.607Z,101288.34
2022-09-20T06:10:54.184Z,101297.88
2022-09-20T06:13:53.319Z,101293.38
2022-09-20T06:16:48.176Z,101298.28
2022-09-20T06:19:42.654Z,101293.03
2022-09-20T06:22:34.542Z,101298.41
2022-09-20T06:25:25.810Z,101306.97
2022-09-20T06:28:17.369Z,101297.41
2022-09-20T06:31:07.421Z,101306.91
2022-09-20T06:33:58.689Z,101312.84
2022-09-20T06:37:09.489Z,101315.50
2022-09-20T06:40:25.328Z,101314.72
2022-09-20T06:43:14.625Z,101315.50
2022-09-20T06:46:01.188Z,101321.81
2022-09-20T06:48:48.126Z,101319.25
2022-09-20T06:51:36.300Z,101323.41
2022-09-20T06:54:24.424Z,101325.09
2022-09-20T06:57:13.032Z,101326.88
2022-09-20T06:59:59.562Z,101323.53
2022-09-20T07:02:46.801Z,101329.72
2022-09-20T07:05:33.499Z,101324.47
2022-09-20T07:08:20.239Z,101331.66
2022-09-20T07:11:10.774Z,101329.97
2022-09-20T07:13:59.533Z,101339.56
2022-09-20T07:16:46.240Z,101337.94
2022-09-20T07:19:32.771Z,101340.63
2022-09-20T07:22:19.524Z,101342.50
2022-09-20T07:25:07.253Z,101344.88
2022-09-20T07:27:55.385Z,101343.84
2022-09-20T07:30:43.009Z,101351.06
2022-09-20T07:33:29.591Z,101350.31
2022-09-20T07:36:16.668Z,101353.84
2022-09-20T07:39:03.197Z,101357.25
2022-09-20T07:41:50.840Z,101354.22
2022-09-20T07:44:42.390Z,101358.47
2022-09-20T07:47:28.906Z,101361.84
2022-09-20T07:50:15.889Z,101360.56
2022-09-20T07:53:02.916Z,101359.47
2022-09-20T07:56:00.386Z,101363.38
2022-09-20T07:58:52.212Z,101362.44
2022-09-20T08:01:40.924Z,101365.53
2022-09-20T08:04:28.265Z,101371.28
2022-09-20T08:07:15.187Z,101372.72
2022-09-20T08:10:01.955Z,101373.28
2022-09-20T08:16:02.784Z,101376.69
2022-09-20T08:18:53.134Z,101380.19
2022-09-20T08:21:39.910Z,101384.47
2022-09-20T08:24:27.261Z,101387.22
2022-09-20T08:27:14.069Z,101396.72
2022-09-20T08:30:01.335Z,101389.66
2022-09-20T08:32:48.387Z,101391.38
2022-09-20T08:35:38.656Z,101390.31
2022-09-20T08:41:39.007Z,101392.19
2022-09-20T08:44:29.606Z,101396.50
2022-09-20T08:47:20.476Z,101371.97
2022-09-20T08:50:10.141Z,101374.94
2022-09-20T08:53:05.139Z,101392.38
2022-09-20T08:55:51.962Z,101394.94
2022-09-20T08:58:39.600Z,101392.91
2022-09-20T09:01:29.426Z,101400.09
2022-09-20T09:04:18.514Z,101394.97
2022-09-20T09:07:07.699Z,101386.06
2022-09-20T09:09:57.882Z,101408.09
2022-09-20T09:12:48.764Z,101390.94
2022-09-20T09:15:37.827Z,101396.97
2022-09-20T09:18:32.257Z,101395.47
2022-09-20T09:21:21.657Z,101393.72
2022-09-20T09:24:16.079Z,101395.09
2022-09-20T09:27:16.546Z,101398.50
2022-09-20T09:30:03.120Z,101398.75
2022-09-20T09:32:50.245Z,101397.25
2022-09-20T09:35:37.776Z,101390.91
2022-09-20T09:38:26.537Z,101392.38
2022-09-20T09:41:26.525Z,101396.00
2022-09-20T09:44:30.765Z,101400.22
2022-09-20T09:47:32.546Z,101407.47
2022-09-20T09:50:37.138Z,101401.16
2022-09-20T09:53:32.655Z,101405.03
2022-09-20T09:56:38.884Z,101411.19
2022-09-20T09:59:51.388Z,101400.94
2022-09-20T10:03:18.721Z,101396.66
2022-09-20T10:06:22.406Z,101404.81
2022-09-20T10:09:34.279Z,101411.69
2022-09-20T10:12:32.279Z,101404.22
2022-09-20T10:15:31.683Z,101397.31
2022-09-20T10:18:40.016Z,101390.44
2022-09-20T10:21:41.391Z,101399.25
2022-09-20T10:24:40.097Z,101389.22
2022-09-20T10:27:41.351Z,101387.13
2022-09-20T10:30:42.164Z,101381.28
2022-09-20T10:33:37.616Z,101384.31
2022-09-20T10:36:31.099Z,101385.75
2022-09-20T10:39:26.623Z,101378.22
2022-09-20T10:42:49.632Z,101385.66
2022-09-20T10:49:15.744Z,101401.50
2022-09-20T10:52:16.580Z,101420.50
2022-09-20T10:55:33.559Z,101423.75
2022-09-20T10:58:54.347Z,101415.88
2022-09-20T11:01:54.528Z,101423.56
2022-09-20T11:04:58.987Z,101433.25
2022-09-20T11:07:56.078Z,101433.81
2022-09-20T11:10:46.800Z,101428.72
2022-09-20T11:13:40.036Z,101428.78
2022-09-20T11:16:33.766Z,101423.88
2022-09-20T11:19:31.499Z,101429.66
2022-09-20T11:22:23.751Z,101435.91
2022-09-20T11:25:20.878Z,101442.00
2022-09-20T11:28:15.423Z,101443.81
2022-09-20T11:31:08.434Z,101448.69
2022-09-20T11:34:01.492Z,101448.09
2022-09-20T11:36:57.640Z,101453.38
2022-09-20T11:39:50.217Z,101450.91
2022-09-20T11:42:40.871Z,101447.69
2022-09-20T11:45:30.868Z,101455.81
2022-09-20T11:48:25.219Z,101455.97
2022-09-20T11:51:41.277Z,101458.56
2022-09-20T11:55:13.889Z,101445.38
2022-09-20T11:58:03.214Z,101445.56
2022-09-20T12:00:54.376Z,101441.03
2022-09-20T12:03:44.640Z,101454.41
2022-09-20T12:06:34.597Z,101453.84
2022-09-20T12:09:27.713Z,101454.25
2022-09-20T12:12:27.516Z,101454.28
2022-09-20T12:15:26.004Z,101457.22
2022-09-20T12:18:38.332Z,101455.13
2022-09-20T12:21:24.945Z,101462.78
2022-09-20T12:24:23.156Z,101466.59
2022-09-20T12:27:44.708Z,101461.38
2022-09-20T12:30:33.965Z,101461.91
2022-09-20T12:33:22.255Z,101463.44
2022-09-20T12:36:27.800Z,101463.97
2022-09-20T12:39:23.323Z,101463.03
2022-09-20T12:42:29.937Z,101468.72
2022-09-20T12:45:19.334Z,101457.50
2022-09-20T12:48:06.265Z,101463.84
2022-09-20T12:51:21.381Z,101466.50
2022-09-20T12:54:11.624Z,101471.22
2022-09-20T12:57:19.115Z,101467.94
2022-09-20T13:00:09.693Z,101480.63
2022-09-20T13:03:01.177Z,101481.44
2022-09-20T13:05:52.695Z,101491.59
2022-09-20T13:08:43.996Z,101499.13
2022-09-20T13:11:35.366Z,101494.41
2022-09-20T13:14:24.889Z,101513.41
2022-09-20T13:17:23.987Z,101523.34
2022-09-20T13:20:19.297Z,101514.06
2022-09-20T13:23:06.594Z,101526.31
2022-09-20T13:25:54.365Z,101509.78
2022-09-20T13:28:48.576Z,101515.50
2022-09-20T13:31:35.966Z,101511.34
2022-09-20T13:34:26.042Z,101510.59
2022-09-20T13:37:21.157Z,101513.91
2022-09-20T13:40:08.186Z,101517.22
2022-09-20T13:43:19.686Z,101517.09
2022-09-20T13:46:12.336Z,101512.13
2022-09-20T13:49:17.627Z,101512.69
2022-09-20T13:52:24.660Z,101512.22
2022-09-20T13:55:28.656Z,101512.78
2022-09-20T13:58:22.361Z,101511.38
2022-09-20T14:01:24.161Z,101526.34
2022-09-20T14:04:17.094Z,101520.94
2022-09-20T14:07:08.452Z,101528.91
2022-09-20T14:09:58.297Z,101527.72
2022-09-20T14:12:46.049Z,101527.31
2022-09-20T14:15:37.552Z,101533.91
2022-09-20T14:18:24.669Z,101533.63
2022-09-20T14:21:13.111Z,101536.06
2022-09-20T14:24:03.122Z,101532.16
2022-09-20T14:27:05.185Z,101537.69
2022-09-20T14:29:53.351Z,101530.47
2022-09-20T14:32:45.728Z,101528.59
2022-09-20T14:35:33.039Z,101533.78
2022-09-20T14:38:24.664Z,101531.56
2022-09-20T14:41:11.812Z,101546.75
2022-09-20T14:44:02.683Z,101549.00
2022-09-20T14:46:49.301Z,101552.91
2022-09-20T14:49:41.095Z,101558.13
2022-09-20T14:52:39.272Z,101557.84
2022-09-20T14:55:28.605Z,101554.13
2022-09-20T14:58:16.259Z,101565.84
2022-09-20T15:01:24.703Z,101573.34
2022-09-20T15:04:21.045Z,101574.25
2022-09-20T15:07:11.613Z,101577.78
2022-09-20T15:09:58.467Z,101580.84
2022-09-20T15:12:45.079Z,101582.13
2022-09-20T15:15:32.008Z,101581.50
2022-09-20T15:18:23.304Z,101578.19
2022-09-20T15:21:10.913Z,101564.41
2022-09-20T15:23:57.305Z,101591.91
2022-09-20T15:26:45.000Z,101598.00
2022-09-20T15:29:31.880Z,101607.81
2022-09-20T15:32:18.338Z,101602.69
2022-09-20T15:35:08.471Z,101605.44
2022-09-20T15:37:55.213Z,101601.16
2022-09-20T15:40:42.514Z,101602.09
2022-09-20T15:43:31.173Z,101603.16
2022-09-20T15:46:20.648Z,101611.25
2022-09-20T15:49:09.047Z,101616.66
2022-09-20T15:51:57.274Z,101606.19
2022-09-20T15:54:43.862Z,101607.13
2022-09-20T15:57:31.267Z,101607.72
2022-09-20T16:00:19.032Z,101608.59
2022-09-20T16:03:05.841Z,101611.09
2022-09-20T16:06:03.471Z,101610.38
2022-09-20T16:08:53.015Z,101615.03
2022-09-20T16:11:40.245Z,101611.75
2022-09-20T16:14:27.004Z,101611.91
2022-09-20T16:17:13.887Z,101620.84
2022-09-20T16:19:59.583Z,101618.22
2022-09-20T16:22:47.140Z,101619.00
2022-09-20T16:25:35.104Z,101623.78
2022-09-20T16:28:21.911Z,101630.94
2022-09-20T16:31:30.403Z,101626.56
2022-09-20T16:34:19.401Z,101608.44
2022-09-20T16:37:09.149Z,101624.44
2022-09-20T16:39:57.375Z,101627.25
2022-09-20T16:42:52.044Z,101630.88
2022-09-20T16:45:39.041Z,101626.56
2022-09-20T16:48:31.081Z,101633.81
2022-09-20T16:51:17.657Z,101632.97
2022-09-20T16:54:06.784Z,101638.25
2022-09-20T16:56:53.804Z,101636.63
2022-09-20T16:59:42.027Z,101636.69
2022-09-20T17:02:28.842Z,101627.16
2022-09-20T17:05:15.733Z,101657.00
2022-09-20T17:08:02.564Z,101660.66
2022-09-20T17:10:49.896Z,101661.56
2022-09-20T17:13:36.660Z,101664.31
2022-09-20T17:16:27.849Z,101675.78
2022-09-20T17:19:15.981Z,101674.97
2022-09-20T17:22:03.220Z,101682.94
2022-09-20T17:24:50.072Z,101682.13
2022-09-20T17:27:39.787Z,101683.84
2022-09-20T17:30:26.709Z,101689.16
2022-09-20T17:33:15.585Z,101691.88
2022-09-20T17:36:03.658Z,101696.22
2022-09-20T17:38:55.161Z,101701.56
2022-09-20T17:41:42.795Z,101701.53
2022-09-20T17:44:29.618Z,101698.84
2022-09-20T17:47:18.233Z,101713.72
2022-09-20T17:50:06.999Z,101708.47
2022-09-20T17:52:53.764Z,101709.38
2022-09-20T17:55:40.648Z,101712.97
2022-09-20T17:58:27.797Z,101716.47
2022-09-20T18:01:17.713Z,101727.19
2022-09-20T18:04:06.299Z,101724.59
2022-09-20T18:07:04.297Z,101729.97
2022-09-20T18:09:52.543Z,101717.78
2022-09-20T18:12:39.263Z,101738.88
2022-09-20T18:15:26.769Z,101744.19
2022-09-20T18:18:13.292Z,101738.91
2022-09-20T18:21:00.604Z,101737.19
2022-09-20T18:23:50.609Z,101740.69
2022-09-20T18:26:38.806Z,101741.53
2022-09-20T18:29:25.308Z,101743.34
2022-09-20T18:32:12.488Z,101747.78
2022-09-20T18:34:59.132Z,101753.97
2022-09-20T18:37:47.276Z,101753.09
2022-09-20T18:40:38.289Z,101754.91
2022-09-20T18:43:24.801Z,101749.66
2022-09-20T18:46:12.816Z,101755.81
2022-09-20T18:49:02.235Z,101754.97
2022-09-20T18:51:50.131Z,101761.16
2022-09-20T18:54:37.417Z,101764.72
2022-09-20T18:57:25.965Z,101764.72
2022-09-20T19:00:14.258Z,101765.59
2022-09-20T19:03:10.324Z,101768.22
2022-09-20T19:06:06.481Z,101773.53
2022-09-20T19:09:01.592Z,101765.66
2022-09-20T19:11:55.430Z,101773.56
2022-09-20T19:15:12.987Z,101768.31
2022-09-20T19:18:12.516Z,101770.09
2022-09-20T19:21:08.280Z,101780.63
2022-09-20T19:24:08.980Z,101774.50
2022-09-20T19:26:56.004Z,101779.66
2022-09-20T19:29:44.912Z,101785.03
2022-09-20T19:32:32.072Z,101792.97
2022-09-20T19:35:23.560Z,101792.97
2022-09-20T19:38:17.774Z,101795.59
2022-09-20T19:41:20.309Z,101800.00
2022-09-20T19:44:40.614Z,101800.03
2022-09-20T19:47:38.151Z,101803.53
2022-09-20T19:50:33.360Z,101812.34
2022-09-20T19:53:24.272Z,101804.47
2022-09-20T19:56:24.857Z,101808.88
2022-09-20T19:59:18.407Z,101778.16
2022-09-20T20:02:06.096Z,101807.09
2022-09-20T20:04:54.469Z,101813.25
2022-09-20T20:07:47.517Z,101816.75
2022-09-20T20:10:43.197Z,101807.09
2022-09-20T20:13:54.010Z,101814.09
2022-09-20T20:16:50.734Z,101822.88
2022-09-20T20:19:51.247Z,101823.78
2022-09-20T20:23:12.797Z,101829.94
2022-09-20T20:26:03.440Z,101832.56
2022-09-20T20:28:50.872Z,101836.97
2022-09-20T20:31:37.770Z,101832.59
2022-09-20T20:34:26.543Z,101829.06
2022-09-20T20:37:14.036Z,101828.19
2022-09-20T20:40:02.607Z,101834.34
2022-09-20T20:42:49.930Z,101836.97
2022-09-20T20:45:38.777Z,101843.13
2022-09-20T20:48:25.535Z,101845.75
2022-09-20T20:51:23.219Z,101844.00
2022-09-20T20:54:11.127Z,101853.66
2022-09-20T20:56:59.822Z,101846.63
2022-09-20T20:59:47.002Z,101855.41
2022-09-20T21:02:33.989Z,101851.91
2022-09-20T21:05:23.460Z,101858.06
2022-09-20T21:08:11.429Z,101858.06
2022-09-20T21:11:02.207Z,101857.19
2022-09-20T21:13:50.678Z,101853.69
2022-09-20T21:16:42.529Z,101837.00
2022-09-20T21:19:29.472Z,101858.94
2022-09-20T21:22:16.206Z,101862.47
2022-09-20T21:25:02.980Z,101865.97
2022-09-20T21:27:50.332Z,101871.25
2022-09-20T21:30:38.511Z,101873.00
2022-09-20T21:33:25.803Z,101878.28
2022-09-20T21:36:15.439Z,101858.94
2022-09-20T21:39:02.100Z,101880.00
2022-09-20T21:41:48.994Z,101887.03
2022-09-20T21:44:36.576Z,101887.00
2022-09-20T21:47:25.124Z,101891.38
2022-09-20T21:50:11.816Z,101895.75
2022-09-20T21:52:58.599Z,101894.84
2022-09-20T21:55:45.431Z,101891.34
2022-09-20T21:58:32.233Z,101898.41
2022-09-20T22:01:21.486Z,101895.78
2022-09-20T22:04:11.532Z,101894.91
2022-09-20T22:06:58.551Z,101904.56
2022-09-20T22:09:45.359Z,101907.19
2022-09-20T22:12:31.854Z,101901.91
2022-09-20T22:15:18.663Z,101902.78
2022-09-20T22:18:06.574Z,101900.13
2022-09-20T22:21:04.747Z,101901.00
2022-09-20T22:23:53.868Z,101901.91
2022-09-20T22:26:42.621Z,101901.03
2022-09-20T22:29:30.172Z,101907.16
2022-09-20T22:32:18.071Z,101903.66
2022-09-20T22:35:06.552Z,101906.25
2022-09-20T22:37:57.475Z,101903.59
2022-09-20T22:40:53.929Z,101902.72
2022-09-20T22:43:40.518Z,101906.19
2022-09-20T22:46:29.492Z,101903.53
2022-09-20T22:49:15.886Z,101902.63
2022-09-20T22:52:03.035Z,101909.56
2022-09-20T22:54:50.769Z,101906.00
2022-09-20T22:57:37.532Z,101915.63
2022-09-20T23:00:24.340Z,101912.09
2022-09-20T23:03:11.161Z,101918.19
2022-09-20T23:05:57.847Z,101918.19
2022-09-20T23:08:44.750Z,101919.03
2022-09-20T23:11:33.561Z,101916.34
2022-09-20T23:14:22.185Z,101918.97
2022-09-20T23:17:08.544Z,101912.03
2022-09-20T23:19:55.382Z,101915.56
2022-09-20T23:22:43.520Z,101911.13
2022-09-20T23:25:31.632Z,101901.47
2022-09-20T23:28:21.232Z,101924.38
2022-09-20T23:31:10.258Z,101926.13
2022-09-20T23:33:59.051Z,101923.47
2022-09-20T23:36:46.362Z,101931.34
2022-09-20T23:39:33.061Z,101927.84
2022-09-20T23:42:19.813Z,101946.22
2022-09-20T23:45:09.739Z,101943.47
2022-09-20T23:47:56.440Z,101935.53
2022-09-20T23:50:44.240Z,101930.31
2022-09-20T23:53:31.277Z,101941.72
2022-09-20T23:56:18.133Z,101934.69
2022-09-20T23:59:04.645Z,101939.91
